createdAt,value
2022-11-27T00:00:41.207Z,1017.66
2022-11-27T00:01:41.194Z,1017.59
2022-11-27T00:02:41.319Z,1017.57
2022-11-27T00:03:41.271Z,1017.56
2022-11-27T00:04:41.156Z,1017.52
2022-11-27T00:05:41.160Z,1017.52
2022-11-27T00:06:41.139Z,1017.54
2022-11-27T00:07:41.202Z,1017.47
2022-11-27T00:08:41.106Z,1017.43
2022-11-27T00:09:41.298Z,1017.40
2022-11-27T00:10:41.087Z,1017.41
2022-11-27T00:11:41.077Z,1017.40
2022-11-27T00:12:41.062Z,1017.38
2022-11-27T00:13:41.049Z,1017.38
2022-11-27T00:14:41.054Z,1017.34
2022-11-27T00:15:41.050Z,1017.34
2022-11-27T00:16:41.017Z,1017.35
2022-11-27T00:17:41.005Z,1017.31
2022-11-27T00:18:40.989Z,1017.34
2022-11-27T00:19:41.353Z,1017.32
2022-11-27T00:20:40.977Z,1017.29
2022-11-27T00:21:40.959Z,1017.25
2022-11-27T00:22:40.946Z,1017.24
2022-11-27T00:23:40.936Z,1017.22
2022-11-27T00:24:41.181Z,1017.25
2022-11-27T00:25:40.910Z,1017.21
2022-11-27T00:26:40.896Z,1017.20
2022-11-27T00:27:40.886Z,1017.23
2022-11-27T00:28:40.876Z,1017.18
2022-11-27T00:29:40.867Z,1017.20
2022-11-27T00:30:40.854Z,1017.15
2022-11-27T00:31:40.884Z,1017.15
2022-11-27T00:32:40.826Z,1017.12
2022-11-27T00:33:40.818Z,1017.14
2022-11-27T00:34:40.969Z,1017.10
2022-11-27T00:35:40.795Z,1017.11
2022-11-27T00:36:44.012Z,1017.09
2022-11-27T00:37:40.772Z,1017.09
2022-11-27T00:38:40.763Z,1017.08
2022-11-27T00:39:40.749Z,1017.07
2022-11-27T00:40:40.737Z,1017.05
2022-11-27T00:41:40.725Z,1017.08
2022-11-27T00:42:40.713Z,1017.01
2022-11-27T00:43:44.639Z,1017.02
2022-11-27T00:44:40.861Z,1017.00
2022-11-27T00:45:40.675Z,1017.02
2022-11-27T00:46:40.728Z,1016.95
2022-11-27T00:47:40.657Z,1016.99
2022-11-27T00:48:40.642Z,1017.02
2022-11-27T00:49:40.630Z,1017.03
2022-11-27T00:50:40.621Z,1017.03
2022-11-27T00:51:40.637Z,1017.04
2022-11-27T00:52:40.595Z,1017.06
2022-11-27T00:53:40.584Z,1017.08
2022-11-27T00:54:40.793Z,1017.06
2022-11-27T00:55:40.565Z,1017.05
2022-11-27T00:56:40.546Z,1017.05
2022-11-27T00:57:40.537Z,1017.04
2022-11-27T00:58:40.522Z,1016.98
2022-11-27T00:59:40.513Z,1016.98
2022-11-27T01:00:40.503Z,1016.95
2022-11-27T01:01:40.528Z,1016.96
2022-11-27T01:02:40.533Z,1016.94
2022-11-27T01:03:40.468Z,1016.92
2022-11-27T01:04:40.567Z,1016.90
2022-11-27T01:05:40.441Z,1016.90
2022-11-27T01:06:40.435Z,1016.89
2022-11-27T01:07:40.459Z,1016.90
2022-11-27T01:08:40.411Z,1016.86
2022-11-27T01:09:40.398Z,1016.88
2022-11-27T01:10:40.385Z,1016.87
2022-11-27T01:11:40.372Z,1016.88
2022-11-27T01:12:40.366Z,1016.85
2022-11-27T01:13:40.354Z,1016.86
2022-11-27T01:14:40.603Z,1016.85
2022-11-27T01:15:40.383Z,1016.82
2022-11-27T01:16:43.096Z,1016.78
2022-11-27T01:17:40.304Z,1016.78
2022-11-27T01:18:40.294Z,1016.74
2022-11-27T01:19:40.282Z,1016.74
2022-11-27T01:20:40.274Z,1016.78
2022-11-27T01:21:40.257Z,1016.74
2022-11-27T01:22:40.249Z,1016.76
2022-11-27T01:23:40.244Z,1016.73
2022-11-27T01:24:40.453Z,1016.75
2022-11-27T01:25:40.218Z,1016.77
2022-11-27T01:26:40.191Z,1016.77
2022-11-27T01:27:40.188Z,1016.76
2022-11-27T01:28:40.177Z,1016.80
2022-11-27T01:29:40.162Z,1016.75
2022-11-27T01:30:40.154Z,1016.74
2022-11-27T01:31:40.266Z,1016.74
2022-11-27T01:32:40.136Z,1016.71
2022-11-27T01:33:40.120Z,1016.71
2022-11-27T01:34:40.318Z,1016.72
2022-11-27T01:35:40.096Z,1016.77
2022-11-27T01:36:40.085Z,1016.70
2022-11-27T01:37:40.073Z,1016.69
2022-11-27T01:38:40.060Z,1016.67
2022-11-27T01:39:40.056Z,1016.67
2022-11-27T01:40:40.038Z,1016.67
2022-11-27T01:41:40.057Z,1016.65
2022-11-27T01:42:40.017Z,1016.62
2022-11-27T01:43:40.004Z,1016.64
2022-11-27T01:44:40.193Z,1016.67
2022-11-27T01:45:39.978Z,1016.67
2022-11-27T01:46:39.996Z,1016.68
2022-11-27T01:47:39.955Z,1016.71
2022-11-27T01:48:39.943Z,1016.68
2022-11-27T01:49:39.929Z,1016.71
2022-11-27T01:50:39.924Z,1016.72
2022-11-27T01:51:39.910Z,1016.72
2022-11-27T01:52:39.903Z,1016.75
2022-11-27T01:53:39.885Z,1016.73
2022-11-27T01:54:40.195Z,1016.74
2022-11-27T01:55:39.860Z,1016.74
2022-11-27T01:56:39.850Z,1016.71
2022-11-27T01:57:39.842Z,1016.71
2022-11-27T01:58:39.830Z,1016.74
2022-11-27T01:59:39.812Z,1016.70
2022-11-27T02:00:39.804Z,1016.69
2022-11-27T02:01:39.855Z,1016.72
2022-11-27T02:02:39.879Z,1016.73
2022-11-27T02:03:39.774Z,1016.68
2022-11-27T02:04:40.006Z,1016.67
2022-11-27T02:05:39.743Z,1016.70
2022-11-27T02:06:39.732Z,1016.69
2022-11-27T02:07:39.812Z,1016.69
2022-11-27T02:08:39.707Z,1016.64
2022-11-27T02:09:39.697Z,1016.66
2022-11-27T02:10:39.685Z,1016.62
2022-11-27T02:11:39.672Z,1016.60
2022-11-27T02:12:39.664Z,1016.56
2022-11-27T02:13:39.647Z,1016.59
2022-11-27T02:14:39.816Z,1016.54
2022-11-27T02:15:39.645Z,1016.52
2022-11-27T02:16:39.656Z,1016.53
2022-11-27T02:17:39.605Z,1016.47
2022-11-27T02:18:39.594Z,1016.44
2022-11-27T02:19:39.575Z,1016.46
2022-11-27T02:20:39.568Z,1016.45
2022-11-27T02:21:39.563Z,1016.42
2022-11-27T02:22:39.544Z,1016.37
2022-11-27T02:23:39.536Z,1016.37
2022-11-27T02:24:39.879Z,1016.42
2022-11-27T02:25:39.511Z,1016.40
2022-11-27T02:26:39.499Z,1016.43
2022-11-27T02:27:39.485Z,1016.45
2022-11-27T02:28:39.472Z,1016.49
2022-11-27T02:29:39.462Z,1016.50
2022-11-27T02:30:39.458Z,1016.46
2022-11-27T02:31:39.549Z,1016.47
2022-11-27T02:32:39.426Z,1016.52
2022-11-27T02:33:39.412Z,1016.50
2022-11-27T02:34:39.617Z,1016.48
2022-11-27T02:35:39.392Z,1016.45
2022-11-27T02:36:39.380Z,1016.46
2022-11-27T02:37:39.368Z,1016.44
2022-11-27T02:38:39.353Z,1016.43
2022-11-27T02:39:39.341Z,1016.41
2022-11-27T02:40:39.334Z,1016.35
2022-11-27T02:41:39.319Z,1016.34
2022-11-27T02:42:39.383Z,1016.30
2022-11-27T02:43:39.293Z,1016.27
2022-11-27T02:44:39.510Z,1016.24
2022-11-27T02:45:39.271Z,1016.24
2022-11-27T02:46:39.317Z,1016.23
2022-11-27T02:47:39.249Z,1016.17
2022-11-27T02:48:39.232Z,1016.16
2022-11-27T02:49:39.222Z,1016.17
2022-11-27T02:50:39.213Z,1016.14
2022-11-27T02:51:39.199Z,1016.12
2022-11-27T02:52:39.185Z,1016.17
2022-11-27T02:53:39.175Z,1016.17
2022-11-27T02:54:39.452Z,1016.16
2022-11-27T02:55:39.151Z,1016.14
2022-11-27T02:56:39.134Z,1016.10
2022-11-27T02:57:39.137Z,1016.14
2022-11-27T02:58:39.191Z,1016.10
2022-11-27T02:59:39.100Z,1016.13
2022-11-27T03:00:39.087Z,1016.13
2022-11-27T03:01:39.129Z,1016.17
2022-11-27T03:02:41.989Z,1016.16
2022-11-27T03:03:39.360Z,1016.12
2022-11-27T03:04:40.100Z,1016.14
2022-11-27T03:05:39.110Z,1016.14
2022-11-27T03:06:39.123Z,1016.13
2022-11-27T03:07:39.046Z,1016.13
2022-11-27T03:08:39.067Z,1016.14
2022-11-27T03:09:38.978Z,1016.18
2022-11-27T03:10:38.969Z,1016.20
2022-11-27T03:11:38.961Z,1016.20
2022-11-27T03:12:38.949Z,1016.19
2022-11-27T03:13:38.931Z,1016.14
2022-11-27T03:14:39.413Z,1016.11
2022-11-27T03:15:38.964Z,1016.11
2022-11-27T03:16:38.877Z,1016.06
2022-11-27T03:17:38.877Z,1016.01
2022-11-27T03:18:38.864Z,1015.99
2022-11-27T03:19:38.859Z,1015.96
2022-11-27T03:20:38.840Z,1015.95
2022-11-27T03:21:38.830Z,1015.92
2022-11-27T03:22:38.815Z,1015.86
2022-11-27T03:23:38.806Z,1015.85
2022-11-27T03:24:39.156Z,1015.80
2022-11-27T03:25:38.800Z,1015.76
2022-11-27T03:26:38.769Z,1015.76
2022-11-27T03:27:38.757Z,1015.70
2022-11-27T03:28:38.743Z,1015.71
2022-11-27T03:29:38.730Z,1015.71
2022-11-27T03:30:38.793Z,1015.68
2022-11-27T03:31:38.735Z,1015.67
2022-11-27T03:32:38.693Z,1015.73
2022-11-27T03:33:38.683Z,1015.72
2022-11-27T03:34:39.077Z,1015.78
2022-11-27T03:35:38.656Z,1015.78
2022-11-27T03:36:38.641Z,1015.77
2022-11-27T03:37:38.631Z,1015.79
2022-11-27T03:38:38.619Z,1015.80
2022-11-27T03:39:38.608Z,1015.78
2022-11-27T03:40:38.592Z,1015.75
2022-11-27T03:41:38.586Z,1015.79
2022-11-27T03:42:38.569Z,1015.86
2022-11-27T03:43:38.562Z,1015.81
2022-11-27T03:44:38.780Z,1015.82
2022-11-27T03:45:38.534Z,1015.77
2022-11-27T03:46:38.650Z,1015.75
2022-11-27T03:47:38.579Z,1015.73
2022-11-27T03:48:38.495Z,1015.72
2022-11-27T03:49:38.480Z,1015.72
2022-11-27T03:50:38.471Z,1015.74
2022-11-27T03:51:38.458Z,1015.69
2022-11-27T03:52:38.443Z,1015.71
2022-11-27T03:53:38.434Z,1015.72
2022-11-27T03:54:38.787Z,1015.70
2022-11-27T03:55:38.409Z,1015.67
2022-11-27T03:56:38.398Z,1015.63
2022-11-27T03:57:38.383Z,1015.67
2022-11-27T03:58:38.369Z,1015.67
2022-11-27T03:59:38.361Z,1015.66
2022-11-27T04:00:38.341Z,1015.65
2022-11-27T04:01:38.447Z,1015.66
2022-11-27T04:02:38.400Z,1015.63
2022-11-27T04:03:38.344Z,1015.62
2022-11-27T04:04:38.692Z,1015.59
2022-11-27T04:05:38.281Z,1015.59
2022-11-27T04:06:38.267Z,1015.56
2022-11-27T04:07:38.278Z,1015.53
2022-11-27T04:08:38.240Z,1015.55
2022-11-27T04:09:38.232Z,1015.56
2022-11-27T04:10:38.221Z,1015.54
2022-11-27T04:11:38.202Z,1015.55
2022-11-27T04:12:38.189Z,1015.58
2022-11-27T04:13:38.179Z,1015.56
2022-11-27T04:14:38.520Z,1015.61
2022-11-27T04:15:38.155Z,1015.61
2022-11-27T04:16:38.233Z,1015.59
2022-11-27T04:17:38.129Z,1015.56
2022-11-27T04:18:38.198Z,1015.57
2022-11-27T04:19:38.102Z,1015.56
2022-11-27T04:20:38.089Z,1015.59
2022-11-27T04:21:38.078Z,1015.56
2022-11-27T04:22:38.065Z,1015.51
2022-11-27T04:23:38.053Z,1015.51
2022-11-27T04:24:38.225Z,1015.51
2022-11-27T04:25:38.029Z,1015.47
2022-11-27T04:26:38.013Z,1015.47
2022-11-27T04:27:38.007Z,1015.47
2022-11-27T04:28:37.989Z,1015.44
2022-11-27T04:29:37.978Z,1015.41
2022-11-27T04:30:37.964Z,1015.39
2022-11-27T04:31:38.050Z,1015.37
2022-11-27T04:32:37.936Z,1015.38
2022-11-27T04:33:37.922Z,1015.29
2022-11-27T04:34:38.189Z,1015.29
2022-11-27T04:35:37.906Z,1015.26
2022-11-27T04:36:39.404Z,1015.24
2022-11-27T04:37:37.881Z,1015.27
2022-11-27T04:38:37.859Z,1015.26
2022-11-27T04:39:37.850Z,1015.27
2022-11-27T04:40:37.835Z,1015.28
2022-11-27T04:41:37.855Z,1015.25
2022-11-27T04:42:37.820Z,1015.25
2022-11-27T04:43:37.797Z,1015.22
2022-11-27T04:44:38.028Z,1015.24
2022-11-27T04:45:37.778Z,1015.23
2022-11-27T04:46:37.835Z,1015.24
2022-11-27T04:47:37.748Z,1015.25
2022-11-27T04:48:37.734Z,1015.28
2022-11-27T04:49:37.718Z,1015.29
2022-11-27T04:50:37.792Z,1015.31
2022-11-27T04:51:37.694Z,1015.28
2022-11-27T04:52:37.677Z,1015.30
2022-11-27T04:53:37.669Z,1015.30
2022-11-27T04:54:37.842Z,1015.30
2022-11-27T04:55:37.645Z,1015.30
2022-11-27T04:56:37.631Z,1015.31
2022-11-27T04:57:37.615Z,1015.34
2022-11-27T04:58:37.605Z,1015.36
2022-11-27T04:59:37.593Z,1015.38
2022-11-27T05:00:37.634Z,1015.37
2022-11-27T05:01:37.566Z,1015.42
2022-11-27T05:02:37.623Z,1015.43
2022-11-27T05:03:37.542Z,1015.41
2022-11-27T05:04:37.722Z,1015.40
2022-11-27T05:05:37.514Z,1015.44
2022-11-27T05:06:37.579Z,1015.42
2022-11-27T05:07:37.539Z,1015.38
2022-11-27T05:08:37.477Z,1015.32
2022-11-27T05:09:37.461Z,1015.33
2022-11-27T05:10:37.448Z,1015.31
2022-11-27T05:11:37.444Z,1015.28
2022-11-27T05:12:37.429Z,1015.27
2022-11-27T05:13:37.412Z,1015.29
2022-11-27T05:14:37.585Z,1015.30
2022-11-27T05:15:37.386Z,1015.27
2022-11-27T05:16:37.448Z,1015.28
2022-11-27T05:17:37.358Z,1015.28
2022-11-27T05:18:37.346Z,1015.31
2022-11-27T05:19:37.335Z,1015.28
2022-11-27T05:20:37.324Z,1015.35
2022-11-27T05:21:37.307Z,1015.30
2022-11-27T05:22:43.188Z,1015.28
2022-11-27T05:23:37.355Z,1015.24
2022-11-27T05:24:37.361Z,1015.22
2022-11-27T05:25:37.253Z,1015.23
2022-11-27T05:26:37.242Z,1015.20
2022-11-27T05:27:37.227Z,1015.20
2022-11-27T05:28:37.223Z,1015.25
2022-11-27T05:29:37.199Z,1015.26
2022-11-27T05:30:37.188Z,1015.27
2022-11-27T05:31:37.296Z,1015.31
2022-11-27T05:32:37.165Z,1015.32
2022-11-27T05:33:37.197Z,1015.30
2022-11-27T05:34:37.205Z,1015.25
2022-11-27T05:35:37.121Z,1015.22
2022-11-27T05:36:37.112Z,1015.20
2022-11-27T05:37:37.097Z,1015.20
2022-11-27T05:38:37.088Z,1015.20
2022-11-27T05:39:37.147Z,1015.18
2022-11-27T05:40:37.060Z,1015.21
2022-11-27T05:41:37.047Z,1015.19
2022-11-27T05:42:37.035Z,1015.23
2022-11-27T05:43:37.013Z,1015.19
2022-11-27T05:44:37.054Z,1015.19
2022-11-27T05:45:36.994Z,1015.20
2022-11-27T05:46:37.053Z,1015.15
2022-11-27T05:47:36.969Z,1015.11
2022-11-27T05:48:37.006Z,1015.11
2022-11-27T05:49:36.942Z,1015.13
2022-11-27T05:50:36.929Z,1015.07
2022-11-27T05:51:36.915Z,1015.11
2022-11-27T05:52:36.901Z,1015.06
2022-11-27T05:53:36.906Z,1015.05
2022-11-27T05:54:36.874Z,1015.11
2022-11-27T05:55:36.945Z,1015.07
2022-11-27T05:56:36.878Z,1015.09
2022-11-27T05:57:36.835Z,1015.11
2022-11-27T05:58:36.826Z,1015.08
2022-11-27T05:59:36.812Z,1015.04
2022-11-27T06:00:36.799Z,1015.05
2022-11-27T06:01:36.835Z,1015.07
2022-11-27T06:02:36.908Z,1015.08
2022-11-27T06:03:36.775Z,1015.08
2022-11-27T06:04:36.746Z,1015.07
2022-11-27T06:05:36.733Z,1015.09
2022-11-27T06:06:36.724Z,1015.12
2022-11-27T06:07:36.761Z,1015.12
2022-11-27T06:08:36.699Z,1015.16
2022-11-27T06:09:36.683Z,1015.18
2022-11-27T06:10:36.671Z,1015.19
2022-11-27T06:11:36.732Z,1015.24
2022-11-27T06:12:36.640Z,1015.23
2022-11-27T06:13:36.623Z,1015.26
2022-11-27T06:14:36.614Z,1015.17
2022-11-27T06:15:36.602Z,1015.12
2022-11-27T06:16:36.735Z,1015.17
2022-11-27T06:17:36.573Z,1015.10
2022-11-27T06:18:36.562Z,1015.10
2022-11-27T06:19:36.544Z,1015.05
2022-11-27T06:20:40.832Z,1015.04
2022-11-27T06:21:36.521Z,1015.03
2022-11-27T06:22:36.509Z,1015.08
2022-11-27T06:23:36.498Z,1015.10
2022-11-27T06:24:36.495Z,1015.09
2022-11-27T06:25:36.470Z,1015.02
2022-11-27T06:26:36.457Z,1015.02
2022-11-27T06:27:36.523Z,1014.97
2022-11-27T06:28:36.432Z,1014.92
2022-11-27T06:29:36.417Z,1014.89
2022-11-27T06:30:36.406Z,1014.87
2022-11-27T06:31:36.453Z,1014.85
2022-11-27T06:32:36.375Z,1014.88
2022-11-27T06:33:36.375Z,1014.89
2022-11-27T06:34:36.355Z,1014.88
2022-11-27T06:35:36.339Z,1014.91
2022-11-27T06:36:36.326Z,1014.94
2022-11-27T06:37:36.312Z,1014.97
2022-11-27T06:38:36.299Z,1014.96
2022-11-27T06:39:36.318Z,1014.89
2022-11-27T06:40:36.275Z,1014.83
2022-11-27T06:41:36.270Z,1014.81
2022-11-27T06:42:36.246Z,1014.75
2022-11-27T06:43:36.313Z,1014.74
2022-11-27T06:44:36.223Z,1014.74
2022-11-27T06:45:36.264Z,1014.72
2022-11-27T06:46:36.196Z,1014.81
2022-11-27T06:47:36.186Z,1014.86
2022-11-27T06:48:36.171Z,1014.88
2022-11-27T06:49:36.155Z,1014.89
2022-11-27T06:50:36.144Z,1014.81
2022-11-27T06:51:36.123Z,1014.84
2022-11-27T06:52:40.342Z,1014.81
2022-11-27T06:53:36.103Z,1014.72
2022-11-27T06:54:36.091Z,1014.71
2022-11-27T06:55:36.078Z,1014.70
2022-11-27T06:56:36.067Z,1014.72
2022-11-27T06:57:36.046Z,1014.70
2022-11-27T06:58:36.042Z,1014.68
2022-11-27T06:59:36.099Z,1014.67
2022-11-27T07:00:36.065Z,1014.66
2022-11-27T07:01:36.295Z,1014.59
2022-11-27T07:02:36.092Z,1014.57
2022-11-27T07:03:35.976Z,1014.51
2022-11-27T07:04:35.963Z,1014.47
2022-11-27T07:05:35.952Z,1014.50
2022-11-27T07:06:35.940Z,1014.49
2022-11-27T07:07:38.496Z,1014.56
2022-11-27T07:08:35.913Z,1014.48
2022-11-27T07:09:35.897Z,1014.50
2022-11-27T07:10:35.885Z,1014.53
2022-11-27T07:11:35.872Z,1014.56
2022-11-27T07:12:35.856Z,1014.58
2022-11-27T07:13:35.849Z,1014.58
2022-11-27T07:14:35.833Z,1014.62
2022-11-27T07:15:35.897Z,1014.60
2022-11-27T07:16:35.844Z,1014.68
2022-11-27T07:17:35.790Z,1014.74
2022-11-27T07:18:35.781Z,1014.75
2022-11-27T07:19:35.766Z,1014.71
2022-11-27T07:20:35.754Z,1014.76
2022-11-27T07:21:35.739Z,1014.71
2022-11-27T07:22:35.724Z,1014.64
2022-11-27T07:23:35.715Z,1014.63
2022-11-27T07:24:35.701Z,1014.61
2022-11-27T07:25:35.687Z,1014.59
2022-11-27T07:26:35.678Z,1014.61
2022-11-27T07:27:35.661Z,1014.60
2022-11-27T07:28:35.652Z,1014.63
2022-11-27T07:29:35.636Z,1014.64
2022-11-27T07:30:35.621Z,1014.59
2022-11-27T07:31:35.756Z,1014.55
2022-11-27T07:32:35.602Z,1014.52
2022-11-27T07:33:35.583Z,1014.43
2022-11-27T07:34:35.563Z,1014.39
2022-11-27T07:35:35.579Z,1014.40
2022-11-27T07:36:35.543Z,1014.40
2022-11-27T07:37:35.532Z,1014.47
2022-11-27T07:38:35.521Z,1014.48
2022-11-27T07:40:00.966Z,1014.53
2022-11-27T07:40:35.494Z,1014.56
2022-11-27T07:41:35.495Z,1014.57
2022-11-27T07:42:38.398Z,1014.61
2022-11-27T07:43:35.458Z,1014.60
2022-11-27T07:44:35.440Z,1014.60
2022-11-27T07:45:35.490Z,1014.63
2022-11-27T07:46:35.417Z,1014.66
2022-11-27T07:47:35.481Z,1014.68
2022-11-27T07:48:35.391Z,1014.67
2022-11-27T07:49:35.380Z,1014.67
2022-11-27T07:50:35.367Z,1014.62
2022-11-27T07:51:35.352Z,1014.54
2022-11-27T07:52:40.790Z,1014.46
2022-11-27T07:53:35.331Z,1014.41
2022-11-27T07:54:35.312Z,1014.31
2022-11-27T07:55:35.301Z,1014.24
2022-11-27T07:56:35.286Z,1014.21
2022-11-27T07:57:35.274Z,1014.16
2022-11-27T07:58:35.263Z,1014.08
2022-11-27T07:59:35.238Z,1014.10
2022-11-27T08:00:35.361Z,1014.05
2022-11-27T08:01:35.302Z,1014.04
2022-11-27T08:02:35.211Z,1014.07
2022-11-27T08:03:35.276Z,1014.11
2022-11-27T08:04:35.219Z,1014.13
2022-11-27T08:05:35.166Z,1014.18
2022-11-27T08:06:35.161Z,1014.18
2022-11-27T08:07:35.210Z,1014.19
2022-11-27T08:08:35.134Z,1014.18
2022-11-27T08:09:35.128Z,1014.17
2022-11-27T08:10:35.121Z,1014.11
2022-11-27T08:11:35.097Z,1014.15
2022-11-27T08:12:35.084Z,1014.20
2022-11-27T08:13:35.076Z,1014.22
2022-11-27T08:14:35.055Z,1014.31
2022-11-27T08:15:35.045Z,1014.35
2022-11-27T08:16:35.137Z,1014.40
2022-11-27T08:17:35.020Z,1014.37
2022-11-27T08:18:35.007Z,1014.35
2022-11-27T08:19:35.070Z,1014.30
2022-11-27T08:20:34.979Z,1014.22
2022-11-27T08:21:34.967Z,1014.18
2022-11-27T08:22:34.956Z,1014.17
2022-11-27T08:23:34.942Z,1014.14
2022-11-27T08:24:34.928Z,1014.19
2022-11-27T08:25:34.916Z,1014.26
2022-11-27T08:26:34.906Z,1014.29
2022-11-27T08:27:34.892Z,1014.34
2022-11-27T08:28:34.877Z,1014.31
2022-11-27T08:29:34.864Z,1014.31
2022-11-27T08:30:34.856Z,1014.33
2022-11-27T08:31:34.877Z,1014.33
2022-11-27T08:32:34.826Z,1014.33
2022-11-27T08:33:34.812Z,1014.41
2022-11-27T08:34:34.805Z,1014.42
2022-11-27T08:35:34.869Z,1014.43
2022-11-27T08:36:34.779Z,1014.42
2022-11-27T08:37:34.756Z,1014.43
2022-11-27T08:38:34.753Z,1014.40
2022-11-27T08:39:34.740Z,1014.37
2022-11-27T08:40:34.730Z,1014.32
2022-11-27T08:41:34.713Z,1014.33
2022-11-27T08:42:34.696Z,1014.35
2022-11-27T08:43:34.686Z,1014.36
2022-11-27T08:44:34.673Z,1014.36
2022-11-27T08:45:34.728Z,1014.33
2022-11-27T08:46:34.650Z,1014.37
2022-11-27T08:47:34.637Z,1014.40
2022-11-27T08:48:34.629Z,1014.39
2022-11-27T08:49:34.608Z,1014.40
2022-11-27T08:50:34.601Z,1014.42
2022-11-27T08:51:34.664Z,1014.44
2022-11-27T08:52:34.579Z,1014.40
2022-11-27T08:53:34.560Z,1014.35
2022-11-27T08:54:34.552Z,1014.28
2022-11-27T08:55:34.537Z,1014.24
2022-11-27T08:56:34.525Z,1014.20
2022-11-27T08:57:34.508Z,1014.18
2022-11-27T08:58:34.495Z,1014.13
2022-11-27T08:59:34.483Z,1014.12
2022-11-27T09:00:34.518Z,1014.12
2022-11-27T09:01:34.539Z,1014.10
2022-11-27T09:02:34.448Z,1014.06
2022-11-27T09:03:34.499Z,1014.06
2022-11-27T09:04:34.475Z,1014.08
2022-11-27T09:05:34.415Z,1014.07
2022-11-27T09:06:34.398Z,1014.11
2022-11-27T09:07:34.580Z,1014.10
2022-11-27T09:08:34.373Z,1014.08
2022-11-27T09:09:34.355Z,1014.11
2022-11-27T09:10:34.345Z,1014.14
2022-11-27T09:11:34.334Z,1014.13
2022-11-27T09:12:35.711Z,1014.09
2022-11-27T09:13:34.308Z,1014.11
2022-11-27T09:14:34.296Z,1014.10
2022-11-27T09:15:34.284Z,1014.10
2022-11-27T09:16:34.309Z,1014.06
2022-11-27T09:17:34.255Z,1014.08
2022-11-27T09:18:34.248Z,1014.08
2022-11-27T09:19:34.260Z,1014.04
2022-11-27T09:20:34.225Z,1014.04
2022-11-27T09:21:34.209Z,1014.05
2022-11-27T09:22:34.199Z,1014.07
2022-11-27T09:23:34.259Z,1014.10
2022-11-27T09:24:34.169Z,1014.10
2022-11-27T09:25:34.158Z,1014.11
2022-11-27T09:26:34.146Z,1014.12
2022-11-27T09:27:34.136Z,1014.16
2022-11-27T09:28:34.121Z,1014.10
2022-11-27T09:29:34.107Z,1014.14
2022-11-27T09:30:34.095Z,1014.13
2022-11-27T09:31:34.114Z,1014.13
2022-11-27T09:32:34.095Z,1014.13
2022-11-27T09:33:34.059Z,1014.13
2022-11-27T09:34:37.436Z,1014.18
2022-11-27T09:35:34.115Z,1014.20
2022-11-27T09:36:34.023Z,1014.20
2022-11-27T09:37:34.012Z,1014.20
2022-11-27T09:38:34.001Z,1014.18
2022-11-27T09:39:34.102Z,1014.15
2022-11-27T09:40:33.970Z,1014.15
2022-11-27T09:41:33.963Z,1014.12
2022-11-27T09:42:33.951Z,1014.03
2022-11-27T09:43:33.932Z,1014.04
2022-11-27T09:44:33.925Z,1013.99
2022-11-27T09:45:33.942Z,1013.97
2022-11-27T09:46:33.899Z,1013.96
2022-11-27T09:47:38.377Z,1013.93
2022-11-27T09:48:33.868Z,1013.88
2022-11-27T09:49:33.858Z,1013.86
2022-11-27T09:50:33.870Z,1013.84
2022-11-27T09:51:33.837Z,1013.81
2022-11-27T09:52:33.822Z,1013.81
2022-11-27T09:53:33.810Z,1013.76
2022-11-27T09:54:33.795Z,1013.78
2022-11-27T09:55:33.958Z,1013.78
2022-11-27T09:56:33.771Z,1013.79
2022-11-27T09:57:33.762Z,1013.82
2022-11-27T09:58:33.748Z,1013.78
2022-11-27T09:59:33.739Z,1013.76
2022-11-27T10:00:33.723Z,1013.75
2022-11-27T10:01:42.054Z,1013.67
2022-11-27T10:02:33.800Z,1013.64
2022-11-27T10:03:33.752Z,1013.62
2022-11-27T10:04:58.051Z,1013.58
2022-11-27T10:05:33.658Z,1013.60
2022-11-27T10:06:33.650Z,1013.62
2022-11-27T10:07:33.694Z,1013.61
2022-11-27T10:08:33.620Z,1013.60
2022-11-27T10:09:33.612Z,1013.61
2022-11-27T10:10:33.599Z,1013.52
2022-11-27T10:11:33.669Z,1013.51
2022-11-27T10:12:33.580Z,1013.50
2022-11-27T10:13:33.567Z,1013.47
2022-11-27T10:14:33.551Z,1013.49
2022-11-27T10:15:33.533Z,1013.48
2022-11-27T10:16:33.576Z,1013.46
2022-11-27T10:17:33.516Z,1013.42
2022-11-27T10:18:33.502Z,1013.41
2022-11-27T10:19:33.490Z,1013.38
2022-11-27T10:20:33.468Z,1013.37
2022-11-27T10:21:33.462Z,1013.36
2022-11-27T10:22:33.459Z,1013.36
2022-11-27T10:23:33.439Z,1013.38
2022-11-27T10:24:33.424Z,1013.44
2022-11-27T10:25:33.415Z,1013.46
2022-11-27T10:26:33.399Z,1013.49
2022-11-27T10:27:33.473Z,1013.45
2022-11-27T10:28:33.378Z,1013.43
2022-11-27T10:29:33.363Z,1013.39
2022-11-27T10:30:33.354Z,1013.36
2022-11-27T10:31:33.413Z,1013.36
2022-11-27T10:32:54.559Z,1013.30
2022-11-27T10:33:33.314Z,1013.38
2022-11-27T10:34:33.309Z,1013.36
2022-11-27T10:35:33.296Z,1013.35
2022-11-27T10:36:33.280Z,1013.37
2022-11-27T10:37:33.262Z,1013.34
2022-11-27T10:38:33.262Z,1013.32
2022-11-27T10:39:33.245Z,1013.32
2022-11-27T10:40:33.230Z,1013.30
2022-11-27T10:41:49.981Z,1013.29
2022-11-27T10:42:33.205Z,1013.23
2022-11-27T10:43:33.347Z,1013.15
2022-11-27T10:44:33.208Z,1013.10
2022-11-27T10:45:33.245Z,1013.09
2022-11-27T10:46:33.152Z,1013.05
2022-11-27T10:47:34.069Z,1013.03
2022-11-27T10:48:33.131Z,1013.02
2022-11-27T10:49:33.124Z,1012.96
2022-11-27T10:50:33.115Z,1012.94
2022-11-27T10:51:33.093Z,1012.92
2022-11-27T10:52:33.080Z,1012.90
2022-11-27T10:53:33.072Z,1012.84
2022-11-27T10:54:33.057Z,1012.84
2022-11-27T10:55:33.046Z,1012.77
2022-11-27T10:56:33.035Z,1012.65
2022-11-27T10:57:33.017Z,1012.57
2022-11-27T10:58:33.010Z,1012.55
2022-11-27T10:59:34.773Z,1012.60
2022-11-27T11:00:32.983Z,1012.62
2022-11-27T11:01:33.037Z,1012.61
2022-11-27T11:02:33.012Z,1012.65
2022-11-27T11:03:32.949Z,1012.70
2022-11-27T11:04:40.196Z,1012.70
2022-11-27T11:05:50.649Z,1012.72
2022-11-27T11:06:32.910Z,1012.71
2022-11-27T11:07:32.936Z,1012.65
2022-11-27T11:08:32.885Z,1012.68
2022-11-27T11:09:32.885Z,1012.66
2022-11-27T11:10:32.864Z,1012.73
2022-11-27T11:11:32.855Z,1012.72
2022-11-27T11:12:32.837Z,1012.71
2022-11-27T11:13:32.825Z,1012.67
2022-11-27T11:14:32.814Z,1012.60
2022-11-27T11:15:32.917Z,1012.55
2022-11-27T11:16:35.677Z,1012.51
2022-11-27T11:17:32.811Z,1012.45
2022-11-27T11:18:32.766Z,1012.38
2022-11-27T11:19:32.754Z,1012.39
2022-11-27T11:20:32.740Z,1012.35
2022-11-27T11:21:32.728Z,1012.37
2022-11-27T11:22:32.714Z,1012.35
2022-11-27T11:23:32.703Z,1012.37
2022-11-27T11:24:32.688Z,1012.36
2022-11-27T11:25:32.682Z,1012.36
2022-11-27T11:26:32.669Z,1012.37
2022-11-27T11:27:32.655Z,1012.37
2022-11-27T11:28:38.039Z,1012.37
2022-11-27T11:29:32.626Z,1012.34
2022-11-27T11:30:32.619Z,1012.33
2022-11-27T11:31:32.808Z,1012.37
2022-11-27T11:32:32.592Z,1012.41
2022-11-27T11:33:32.583Z,1012.41
2022-11-27T11:34:32.573Z,1012.44
2022-11-27T11:35:32.558Z,1012.44
2022-11-27T11:36:32.553Z,1012.44
2022-11-27T11:37:32.536Z,1012.46
2022-11-27T11:38:32.530Z,1012.46
2022-11-27T11:39:32.512Z,1012.45
2022-11-27T11:40:32.504Z,1012.42
2022-11-27T11:41:32.486Z,1012.42
2022-11-27T11:42:32.471Z,1012.38
2022-11-27T11:43:32.462Z,1012.35
2022-11-27T11:44:32.447Z,1012.38
2022-11-27T11:45:33.087Z,1012.37
2022-11-27T11:46:32.546Z,1012.39
2022-11-27T11:47:32.493Z,1012.40
2022-11-27T11:48:32.398Z,1012.44
2022-11-27T11:49:32.388Z,1012.50
2022-11-27T11:50:32.380Z,1012.52
2022-11-27T11:51:32.368Z,1012.55
2022-11-27T11:52:32.361Z,1012.58
2022-11-27T11:53:32.345Z,1012.51
2022-11-27T11:54:32.331Z,1012.51
2022-11-27T11:55:32.322Z,1012.44
2022-11-27T11:56:32.327Z,1012.42
2022-11-27T11:57:32.298Z,1012.40
2022-11-27T11:58:32.276Z,1012.40
2022-11-27T11:59:32.272Z,1012.42
2022-11-27T12:00:39.986Z,1012.44
2022-11-27T12:01:32.252Z,1012.42
2022-11-27T12:02:32.303Z,1012.41
2022-11-27T12:03:32.318Z,1012.40
2022-11-27T12:04:32.287Z,1012.32
2022-11-27T12:05:32.204Z,1012.31